Time;durP1;ratioP1;P1;durP2;ratioP2;P2;SDS_P1;SDS_P2;PMS_P1;PMS_P2;Temp;Humidity;BMP_temperature;BMP_pressure;BME280_temperature;BME280_humidity;BME280_pressure;Samples;Min_cycle;Max_cycle;Signal;HPM_P1;HPM_P2
2022/04/20 00:01:42;;;;;;;17.02;12.43;;;8.20;99.90;;;;;;5076891;28;20086;-60
2022/04/20 00:04:10;;;;;;;18.83;12.60;;;8.20;99.90;;;;;;5076939;28;20062;-61
2022/04/20 00:06:37;;;;;;;16.70;12.80;;;8.20;99.90;;;;;;5077060;28;20074;-60
2022/04/20 00:09:03;;;;;;;17.42;11.80;;;8.20;99.90;;;;;;5077019;28;20402;-61
2022/04/20 00:11:29;;;;;;;16.88;12.57;;;8.20;99.90;;;;;;5076969;28;20390;-60
2022/04/20 00:13:55;;;;;;;18.02;12.95;;;8.30;99.90;;;;;;5076755;28;20032;-60
2022/04/20 00:16:21;;;;;;;21.73;13.48;;;8.20;99.90;;;;;;5076942;28;20029;-61
2022/04/20 00:18:47;;;;;;;16.38;11.77;;;8.20;99.90;;;;;;5076900;28;20076;-61
2022/04/20 00:21:13;;;;;;;15.48;11.27;;;8.10;99.90;;;;;;5076884;28;20028;-61
2022/04/20 00:23:39;;;;;;;13.32;10.48;;;8.00;99.90;;;;;;5076824;28;20033;-61
2022/04/20 00:26:05;;;;;;;12.30;9.90;;;8.00;99.90;;;;;;5077257;28;20024;-61
2022/04/20 00:28:31;;;;;;;12.40;10.10;;;8.00;99.90;;;;;;5076452;28;20025;-61
2022/04/20 00:30:57;;;;;;;11.70;9.45;;;8.00;99.90;;;;;;5058666;28;20021;-60
2022/04/20 00:33:23;;;;;;;13.32;9.25;;;7.90;99.90;;;;;;5075905;28;20139;-61
2022/04/20 00:35:50;;;;;;;13.48;9.73;;;7.90;99.90;;;;;;5057809;28;20115;-60
2022/04/20 00:38:17;;;;;;;15.80;10.63;;;7.80;99.90;;;;;;5076617;28;20035;-61
2022/04/20 00:40:47;;;;;;;15.38;10.80;;;7.80;99.90;;;;;;5076629;28;20453;-61
2022/04/20 00:43:13;;;;;;;20.95;13.75;;;7.80;99.90;;;;;;5076190;28;20033;-61
2022/04/20 00:45:42;;;;;;;17.02;12.18;;;7.70;99.90;;;;;;5076579;28;20219;-61
2022/04/20 00:48:11;;;;;;;20.50;12.60;;;7.70;99.90;;;;;;5076374;28;20474;-61
2022/04/20 00:50:38;;;;;;;29.02;17.10;;;7.70;99.90;;;;;;5058125;28;20028;-61
2022/04/20 00:53:05;;;;;;;24.45;15.65;;;7.70;99.90;;;;;;5058367;28;20063;-61
2022/04/20 00:55:31;;;;;;;22.25;14.70;;;7.60;99.90;;;;;;5076222;28;20025;-61
2022/04/20 00:58:01;;;;;;;24.70;16.58;;;7.60;99.90;;;;;;5074860;28;20029;-62
2022/04/20 01:00:29;;;;;;;23.40;15.65;;;7.60;99.90;;;;;;5076178;28;20028;-62
2022/04/20 01:02:56;;;;;;;20.38;14.05;;;7.60;99.90;;;;;;5074600;28;20028;-62
2022/04/20 01:05:25;;;;;;;22.40;15.38;;;7.60;99.90;;;;;;5074657;28;20449;-62
2022/04/20 01:08:29;;;;;;;23.63;15.77;;;7.60;99.90;;;;;;5070619;28;20397;-62
2022/04/20 01:11:13;;;;;;;23.48;16.23;;;7.50;99.90;;;;;;5075986;28;20085;-61
2022/04/20 01:13:50;;;;;;;22.40;15.48;;;7.50;99.90;;;;;;5074414;28;20039;-61
2022/04/20 01:16:26;;;;;;;23.40;15.52;;;7.50;99.90;;;;;;5057885;28;20169;-61
2022/04/20 01:19:13;;;;;;;24.02;14.60;;;7.40;99.90;;;;;;5075177;28;20080;-61
2022/04/20 01:21:58;;;;;;;20.50;14.65;;;7.40;99.90;;;;;;5075878;28;20054;-61
2022/04/20 01:24:43;;;;;;;22.65;14.80;;;7.40;99.90;;;;;;5075793;28;20094;-62
2022/04/20 01:27:28;;;;;;;19.98;14.52;;;7.40;99.90;;;;;;5057722;28;20020;-62
2022/04/20 01:29:57;;;;;;;24.15;16.17;;;7.40;99.90;;;;;;5075780;28;20140;-61
2022/04/20 01:32:54;;;;;;;21.02;14.48;;;7.50;99.90;;;;;;5066609;28;20385;-61
2022/04/20 01:35:28;;;;;;;21.73;15.15;;;7.30;99.90;;;;;;5057506;28;20035;-61
2022/04/20 01:37:54;;;;;;;20.80;15.90;;;7.30;99.90;;;;;;5075659;28;20028;-62
2022/04/20 01:40:20;;;;;;;25.73;16.75;;;7.30;99.90;;;;;;5075155;28;20036;-61
2022/04/20 01:42:47;;;;;;;26.98;17.20;;;7.40;99.90;;;;;;5073805;28;20115;-61
2022/04/20 01:45:13;;;;;;;24.83;19.05;;;7.30;99.90;;;;;;5056742;28;20024;-61
2022/04/20 01:47:57;;;;;;;24.67;17.58;;;7.30;99.90;;;;;;5075322;28;20085;-61
2022/04/20 01:53:52;;;;;;;26.35;18.85;;;7.40;99.90;;;;;;5056890;28;20059;-61
2022/04/20 01:56:40;;;;;;;24.92;18.33;;;7.40;99.90;;;;;;5090957;28;20063;-62
2022/04/20 01:59:29;;;;;;;26.52;18.60;;;7.40;99.90;;;;;;5064117;28;20036;-61
2022/04/20 02:02:38;;;;;;;26.88;17.98;;;7.40;99.90;;;;;;5058294;28;20040;-61
2022/04/20 02:05:24;;;;;;;25.27;19.33;;;7.30;99.90;;;;;;5072972;28;20060;-62
2022/04/20 02:08:05;;;;;;;24.17;17.40;;;7.30;99.90;;;;;;5056686;28;20086;-61
2022/04/20 02:11:06;;;;;;;27.25;17.90;;;7.30;99.90;;;;;;5064230;28;20040;-61
2022/04/20 02:13:33;;;;;;;27.27;17.83;;;7.30;99.90;;;;;;5073334;28;20024;-61
2022/04/20 02:16:02;;;;;;;23.30;16.88;;;7.30;99.90;;;;;;5074603;28;20039;-62
2022/04/20 02:18:49;;;;;;;24.02;17.02;;;7.30;99.90;;;;;;5073104;28;20052;-61
2022/04/20 02:21:27;;;;;;;22.77;16.15;;;7.20;99.90;;;;;;5073277;28;20032;-62
2022/04/20 02:23:53;;;;;;;19.85;15.65;;;7.20;99.90;;;;;;5073128;28;20039;-61
2022/04/20 02:26:20;;;;;;;21.27;15.32;;;7.30;99.90;;;;;;5073388;28;20028;-62
2022/04/20 02:28:46;;;;;;;19.38;14.02;;;7.30;99.90;;;;;;5056480;28;20036;-62
2022/04/20 02:31:12;;;;;;;22.50;15.65;;;7.20;99.90;;;;;;5056459;28;20021;-62
2022/04/20 02:33:38;;;;;;;18.85;13.23;;;7.20;99.90;;;;;;5073223;28;20131;-62
2022/04/20 02:36:04;;;;;;;18.25;12.77;;;7.20;99.90;;;;;;5056221;28;20129;-61
2022/04/20 02:38:31;;;;;;;14.55;11.45;;;7.20;99.90;;;;;;5074479;28;20029;-61
2022/04/20 02:40:57;;;;;;;13.98;9.63;;;7.20;99.90;;;;;;5073185;28;20066;-62
2022/04/20 02:43:23;;;;;;;11.75;9.55;;;7.20;99.90;;;;;;5074139;28;20017;-62
2022/04/20 02:45:49;;;;;;;12.73;8.82;;;7.20;99.90;;;;;;5074693;28;20108;-62
2022/04/20 02:48:15;;;;;;;17.05;8.80;;;7.10;99.90;;;;;;5074298;28;20052;-61
2022/04/20 02:50:43;;;;;;;9.20;7.80;;;7.10;99.90;;;;;;5056241;28;20025;-62
2022/04/20 02:53:09;;;;;;;10.50;8.07;;;7.00;99.90;;;;;;5056242;28;20029;-62
2022/04/20 02:55:38;;;;;;;10.35;8.10;;;7.00;99.90;;;;;;5073050;28;20032;-62
2022/04/20 02:58:04;;;;;;;9.63;7.15;;;6.90;99.90;;;;;;5058295;28;20444;-62
2022/04/20 03:00:30;;;;;;;9.95;7.45;;;6.90;99.90;;;;;;5077105;28;20051;-63
2022/04/20 03:03:09;;;;;;;9.38;7.35;;;6.90;99.90;;;;;;5076840;28;20066;-63
2022/04/20 03:05:35;;;;;;;8.98;7.13;;;6.80;99.90;;;;;;5060240;28;20082;-63
2022/04/20 03:08:01;;;;;;;10.40;8.27;;;6.80;99.90;;;;;;5076968;28;20029;-63
2022/04/20 03:10:28;;;;;;;10.90;6.95;;;6.80;99.90;;;;;;5076710;28;20028;-62
2022/04/20 03:12:55;;;;;;;9.00;6.95;;;6.80;99.90;;;;;;5076836;28;20033;-62
2022/04/20 03:15:21;;;;;;;9.55;7.10;;;6.80;99.90;;;;;;5076579;28;20043;-62
2022/04/20 03:17:48;;;;;;;10.25;6.65;;;6.80;99.90;;;;;;5076589;28;20059;-62
2022/04/20 03:20:14;;;;;;;8.43;6.85;;;6.70;99.90;;;;;;5060161;28;20028;-62
2022/04/20 03:22:41;;;;;;;9.13;7.05;;;6.70;99.90;;;;;;5077969;28;20020;-62
2022/04/20 03:25:07;;;;;;;7.75;6.25;;;6.70;99.90;;;;;;5076509;28;20028;-62
2022/04/20 03:27:56;;;;;;;6.68;4.93;;;6.70;99.90;;;;;;5077058;28;20036;-62
2022/04/20 03:30:22;;;;;;;10.20;6.65;;;6.60;99.90;;;;;;5076450;28;20043;-62
2022/04/20 03:32:48;;;;;;;6.18;5.15;;;6.60;99.90;;;;;;5076317;28;20032;-62
2022/04/20 03:35:16;;;;;;;5.47;4.55;;;6.60;99.90;;;;;;5077677;28;20032;-62
2022/04/20 03:37:42;;;;;;;6.28;4.35;;;6.60;99.90;;;;;;5059838;28;20071;-62
2022/04/20 03:40:10;;;;;;;7.47;5.53;;;6.50;99.90;;;;;;5076247;28;20085;-62
2022/04/20 03:42:36;;;;;;;7.57;4.50;;;6.50;99.90;;;;;;5077375;28;20035;-62
2022/04/20 03:45:02;;;;;;;5.85;4.28;;;6.50;99.90;;;;;;5077515;28;20486;-63
2022/04/20 03:47:28;;;;;;;6.47;4.60;;;6.60;99.90;;;;;;5077445;28;20037;-62
2022/04/20 03:49:54;;;;;;;9.23;4.85;;;6.50;99.90;;;;;;5077382;28;20052;-62
2022/04/20 03:52:20;;;;;;;5.32;3.80;;;6.50;99.90;;;;;;5077423;28;20029;-62
2022/04/20 03:54:48;;;;;;;7.55;4.53;;;6.50;99.90;;;;;;5079156;28;20105;-63
2022/04/20 03:57:15;;;;;;;4.07;3.10;;;6.50;99.90;;;;;;5107637;28;20039;-62
2022/04/20 03:59:47;;;;;;;4.57;3.58;;;6.50;99.90;;;;;;5066999;28;20048;-62
2022/04/20 04:02:17;;;;;;;5.18;3.75;;;6.50;99.90;;;;;;5072759;28;20032;-62
2022/04/20 04:04:48;;;;;;;4.47;3.85;;;6.50;99.90;;;;;;5069113;28;20032;-62
2022/04/20 04:07:23;;;;;;;6.90;4.70;;;6.50;99.90;;;;;;5078573;28;20084;-62
2022/04/20 04:09:49;;;;;;;5.75;4.22;;;6.50;99.90;;;;;;5099864;28;20028;-62
2022/04/20 04:12:15;;;;;;;5.78;4.28;;;6.50;99.90;;;;;;5095869;28;20559;-63
2022/04/20 04:14:49;;;;;;;9.85;4.93;;;6.50;99.90;;;;;;5095820;28;20054;-63
2022/04/20 04:17:15;;;;;;;23.15;11.85;;;6.50;99.90;;;;;;5095649;28;20024;-62
2022/04/20 04:19:43;;;;;;;8.70;5.28;;;6.50;99.90;;;;;;5095882;28;20493;-62
2022/04/20 04:22:09;;;;;;;18.02;9.02;;;6.50;99.90;;;;;;5095639;28;20035;-62
2022/04/20 04:24:42;;;;;;;23.33;10.18;;;6.40;99.90;;;;;;5095672;28;20060;-63
2022/04/20 04:27:11;;;;;;;9.55;4.38;;;6.50;99.90;;;;;;5095635;28;20384;-62
2022/04/20 04:29:40;;;;;;;24.73;10.75;;;6.50;99.90;;;;;;5095449;28;20021;-62
2022/04/20 04:32:07;;;;;;;14.15;7.30;;;6.50;99.90;;;;;;5096820;28;20024;-63
2022/04/20 04:34:34;;;;;;;10.18;4.18;;;6.50;99.90;;;;;;5095436;28;20028;-62
2022/04/20 04:37:05;;;;;;;42.88;16.17;;;6.60;99.90;;;;;;5095371;28;20032;-62
2022/04/20 04:39:33;;;;;;;65.32;25.30;;;6.50;99.90;;;;;;5095546;28;20031;-62
2022/04/20 04:42:03;;;;;;;29.75;12.82;;;6.50;99.90;;;;;;5095361;28;20047;-62
2022/04/20 04:44:33;;;;;;;187.48;67.93;;;6.50;99.90;;;;;;5095125;28;20367;-62
2022/04/20 04:49:50;;;;;;;;;;;6.50;99.90;;;;;;5096851;28;20028;-62
2022/04/20 04:52:17;;;;;;;23.38;12.70;;;6.50;99.90;;;;;;5096503;28;19914;-62
2022/04/20 04:54:49;;;;;;;14.65;8.23;;;6.50;99.90;;;;;;5095432;28;20032;-62
2022/04/20 04:57:15;;;;;;;10.00;6.75;;;6.60;99.90;;;;;;5095147;28;20032;-62
2022/04/20 04:59:43;;;;;;;13.55;7.75;;;6.60;99.90;;;;;;5094891;28;20024;-63
2022/04/20 05:02:10;;;;;;;7.32;6.05;;;6.60;99.90;;;;;;5095071;28;20027;-62
2022/04/20 05:04:42;;;;;;;6.03;5.28;;;6.60;99.90;;;;;;5094741;28;20101;-63
2022/04/20 05:07:10;;;;;;;11.30;6.85;;;6.60;99.90;;;;;;5094942;28;20082;-63
2022/04/20 05:09:56;;;;;;;11.95;8.60;;;6.70;99.90;;;;;;5095689;28;20107;-63
2022/04/20 05:12:23;;;;;;;10.77;7.45;;;6.70;99.90;;;;;;5094476;28;20080;-63
2022/04/20 05:14:49;;;;;;;14.35;9.40;;;6.70;99.90;;;;;;5095121;28;20369;-62
2022/04/20 05:17:15;;;;;;;19.42;11.80;;;6.70;99.90;;;;;;5076309;28;20031;-63
2022/04/20 05:19:44;;;;;;;21.17;10.88;;;6.70;99.90;;;;;;5091728;28;20040;-63
2022/04/20 05:22:18;;;;;;;55.83;21.50;;;6.70;99.90;;;;;;5077443;28;20114;-63
2022/04/20 05:24:44;;;;;;;35.05;18.35;;;6.60;99.90;;;;;;5095158;28;20101;-62
2022/04/20 05:27:14;;;;;;;28.55;14.32;;;6.70;99.90;;;;;;5077970;28;20165;-62
2022/04/20 05:30:05;;;;;;;14.10;8.20;;;6.70;99.90;;;;;;5082645;28;20482;-63
2022/04/20 05:32:31;;;;;;;12.80;8.15;;;6.70;99.90;;;;;;5079875;28;20030;-62
2022/04/20 05:34:58;;;;;;;16.42;7.25;;;6.70;99.90;;;;;;5073840;28;20021;-63
2022/04/20 05:42:54;;;;;;;11.63;5.30;;;6.80;99.90;;;;;;5057168;28;20039;-63
2022/04/20 05:45:21;;;;;;;12.55;6.10;;;6.90;99.90;;;;;;5073851;28;20239;-63
2022/04/20 05:48:01;;;;;;;14.25;7.85;;;6.80;99.90;;;;;;5056703;28;20031;-63
2022/04/20 05:50:28;;;;;;;;;;;6.90;99.90;;;;;;5057334;28;20032;-63
2022/04/20 05:52:54;;;;;;;8.77;5.75;;;6.90;99.90;;;;;;5090215;28;19914;-63
2022/04/20 05:55:20;;;;;;;14.15;6.75;;;6.80;99.90;;;;;;5071814;28;20090;-63
2022/04/20 05:57:50;;;;;;;12.38;7.85;;;6.80;99.90;;;;;;5076873;28;20096;-63
2022/04/20 06:00:18;;;;;;;9.15;7.10;;;6.90;99.90;;;;;;5076724;28;20393;-63
2022/04/20 06:03:04;;;;;;;7.03;5.13;;;6.90;99.90;;;;;;5094561;28;20047;-63
2022/04/20 06:05:30;;;;;;;5.72;3.70;;;6.90;99.90;;;;;;5076729;28;20036;-63
2022/04/20 06:08:23;;;;;;;7.93;4.93;;;6.90;99.90;;;;;;5082032;28;20039;-63
2022/04/20 06:11:16;;;;;;;10.27;4.53;;;6.80;99.90;;;;;;5076600;28;20028;-63
2022/04/20 06:13:43;;;;;;;8.70;4.25;;;6.80;99.90;;;;;;5076789;28;20024;-63
2022/04/20 06:16:21;;;;;;;14.43;6.03;;;6.80;99.90;;;;;;5076611;28;20048;-63
2022/04/20 06:18:57;;;;;;;9.85;5.00;;;6.70;99.90;;;;;;5074982;28;20044;-63
2022/04/20 06:21:32;;;;;;;12.75;5.70;;;6.70;99.90;;;;;;5094746;28;20039;-63
2022/04/20 06:24:24;;;;;;;15.30;6.38;;;6.70;99.90;;;;;;5093095;28;20024;-63
2022/04/20 06:26:57;;;;;;;11.35;6.40;;;6.70;99.90;;;;;;5076266;28;20115;-63
2022/04/20 06:29:22;;;;;;;16.58;9.57;;;6.70;99.90;;;;;;5094565;28;20096;-63
2022/04/20 06:32:19;;;;;;;17.95;9.05;;;6.70;99.90;;;;;;5056719;28;20028;-63
2022/04/20 06:35:08;;;;;;;26.23;11.02;;;6.80;99.90;;;;;;5091116;28;20090;-63
2022/04/20 06:37:52;;;;;;;16.83;10.05;;;6.80;99.90;;;;;;5094183;28;20039;-63
2022/04/20 06:40:37;;;;;;;24.65;11.90;;;6.90;99.90;;;;;;5094420;28;20097;-63
2022/04/20 06:43:29;;;;;;;17.30;9.68;;;6.90;99.90;;;;;;5070439;28;20036;-63
2022/04/20 06:46:05;;;;;;;20.73;9.90;;;6.90;99.90;;;;;;5076309;28;20041;-63
2022/04/20 06:48:50;;;;;;;13.63;7.55;;;6.80;99.90;;;;;;5094252;28;20073;-64
2022/04/20 07:00:12;;;;;;;12.77;7.47;;;6.90;99.90;;;;;;5075894;28;20077;-63
2022/04/20 07:03:06;;;;;;;9.80;6.50;;;6.90;99.90;;;;;;5094115;28;20028;-63
2022/04/20 07:05:59;;;;;;;7.82;5.07;;;6.90;99.90;;;;;;5075882;28;20068;-63
2022/04/20 07:08:51;;;;;;;10.52;5.28;;;6.90;99.90;;;;;;5093729;28;20036;-63
2022/04/20 07:11:19;;;;;;;15.45;6.40;;;6.90;99.90;;;;;;5076207;28;20115;-63
2022/04/20 07:13:48;;;;;;;9.77;5.90;;;7.00;99.90;;;;;;5076501;28;20459;-63
2022/04/20 07:16:15;;;;;;;11.70;6.53;;;7.20;99.90;;;;;;5076753;28;20474;-63
2022/04/20 07:18:45;;;;;;;9.00;5.50;;;7.20;99.90;;;;;;5076013;28;20055;-64
2022/04/20 07:21:34;;;;;;;16.85;7.03;;;7.20;99.90;;;;;;5088400;28;20490;-64
2022/04/20 07:24:18;;;;;;;7.45;4.90;;;7.20;99.90;;;;;;5094484;28;20051;-64
2022/04/20 07:26:59;;;;;;;11.23;4.90;;;7.10;99.90;;;;;;5094715;28;20137;-64
2022/04/20 07:29:45;;;;;;;10.48;4.88;;;7.20;99.90;;;;;;5062224;28;20099;-65
2022/04/20 07:32:20;;;;;;;8.32;4.65;;;7.00;99.90;;;;;;5094057;28;20043;-64
2022/04/20 07:34:58;;;;;;;9.27;4.32;;;7.10;99.90;;;;;;5075602;28;20032;-64
2022/04/20 07:37:32;;;;;;;14.02;5.35;;;7.20;99.90;;;;;;5075673;28;20123;-65
2022/04/20 07:40:34;;;;;;;7.38;3.83;;;7.30;99.90;;;;;;5051144;28;20041;-64
2022/04/20 07:43:15;;;;;;;11.50;5.40;;;7.30;99.90;;;;;;5072305;28;20036;-64
2022/04/20 07:45:50;;;;;;;15.48;6.80;;;7.40;99.90;;;;;;5097758;28;20084;-65
2022/04/20 07:48:35;;;;;;;12.77;7.45;;;7.50;99.90;;;;;;5097471;28;20097;-65
2022/04/20 07:51:39;;;;;;;16.65;8.25;;;7.40;99.90;;;;;;5085021;28;20028;-64
2022/04/20 07:54:40;;;;;;;12.13;8.13;;;7.60;99.90;;;;;;5054881;28;20025;-65
2022/04/20 07:57:25;;;;;;;12.75;9.02;;;7.50;99.90;;;;;;5093808;28;20043;-64
2022/04/20 08:00:07;;;;;;;13.30;9.60;;;7.80;99.90;;;;;;5077755;28;20021;-65
2022/04/20 08:02:40;;;;;;;19.17;11.52;;;8.00;99.90;;;;;;5095507;28;20032;-65
2022/04/20 08:05:20;;;;;;;13.63;10.30;;;8.10;99.90;;;;;;5081067;28;20047;-65
2022/04/20 08:07:47;;;;;;;12.80;10.27;;;8.10;99.90;;;;;;5097019;28;20020;-64
2022/04/20 08:10:14;;;;;;;17.48;10.77;;;8.10;99.90;;;;;;5077988;28;20027;-64
2022/04/20 08:12:42;;;;;;;36.50;16.42;;;8.10;99.90;;;;;;5078787;28;20032;-65
2022/04/20 08:15:13;;;;;;;23.85;13.32;;;8.20;99.90;;;;;;5078625;28;20032;-65
2022/04/20 08:17:51;;;;;;;27.35;14.88;;;8.20;99.90;;;;;;5087525;28;20409;-64
2022/04/20 08:20:35;;;;;;;23.33;14.60;;;8.20;99.90;;;;;;5075907;28;20105;-65
2022/04/20 08:23:02;;;;;;;32.55;18.90;;;8.20;99.90;;;;;;5092442;28;20053;-64
2022/04/20 08:25:31;;;;;;;18.20;12.32;;;8.10;99.90;;;;;;5094113;28;20419;-65
2022/04/20 08:27:57;;;;;;;19.55;12.88;;;8.00;99.90;;;;;;5074392;28;20023;-64
2022/04/20 08:30:23;;;;;;;19.55;13.98;;;8.00;99.90;;;;;;5083556;28;20029;-64
2022/04/20 08:32:49;;;;;;;22.30;14.00;;;8.10;99.90;;;;;;5076331;28;20104;-64
2022/04/20 08:35:15;;;;;;;24.95;15.52;;;8.10;99.90;;;;;;5080526;28;20048;-65
2022/04/20 08:37:41;;;;;;;16.60;10.82;;;8.00;99.90;;;;;;5078854;28;20020;-64
2022/04/20 08:40:07;;;;;;;16.08;11.73;;;7.90;99.90;;;;;;5095914;28;20062;-64
2022/04/20 08:42:34;;;;;;;19.33;13.80;;;7.70;99.90;;;;;;5095936;28;20389;-64
2022/04/20 08:45:04;;;;;;;23.63;14.93;;;7.90;99.90;;;;;;5095825;28;20024;-64
2022/04/20 08:47:39;;;;;;;30.38;19.45;;;7.90;99.90;;;;;;5095960;28;20028;-64
2022/04/20 08:50:07;;;;;;;32.15;18.42;;;8.00;99.90;;;;;;5094029;28;20073;-64
2022/04/20 08:52:43;;;;;;;21.05;13.15;;;8.00;99.90;;;;;;5095053;28;20032;-64
2022/04/20 08:55:14;;;;;;;25.30;14.65;;;8.00;99.90;;;;;;5088421;28;20031;-64
2022/04/20 08:57:42;;;;;;;19.98;12.48;;;8.00;99.90;;;;;;5096184;28;20069;-62
2022/04/20 09:00:11;;;;;;;23.10;13.73;;;8.10;99.90;;;;;;5096512;28;20028;-63
2022/04/20 09:02:37;;;;;;;22.42;13.90;;;8.20;99.90;;;;;;5075479;28;20037;-62
2022/04/20 09:05:05;;;;;;;23.73;15.20;;;8.10;99.90;;;;;;5076238;28;20025;-62
2022/04/20 09:07:31;;;;;;;17.45;12.30;;;8.00;99.90;;;;;;5077674;28;20039;-62
2022/04/20 09:10:00;;;;;;;19.15;12.82;;;8.00;99.90;;;;;;5096139;28;20385;-62
2022/04/20 09:12:28;;;;;;;23.33;13.98;;;8.10;99.90;;;;;;5096168;28;20454;-61
2022/04/20 09:14:56;;;;;;;22.20;14.45;;;8.20;99.90;;;;;;5094722;28;20084;-62
2022/04/20 09:17:24;;;;;;;29.13;16.83;;;8.20;99.90;;;;;;5092652;28;20031;-62
2022/04/20 09:19:52;;;;;;;25.65;15.65;;;8.30;99.90;;;;;;5075274;28;20378;-62
2022/04/20 09:22:18;;;;;;;25.77;17.02;;;8.40;99.90;;;;;;5074887;28;20465;-62
2022/04/20 09:25:14;;;;;;;23.08;15.73;;;8.50;99.90;;;;;;5068950;28;20029;-61
2022/04/20 09:27:42;;;;;;;25.60;16.63;;;8.70;99.90;;;;;;5073816;28;20071;-62
2022/04/20 09:30:16;;;;;;;24.50;16.20;;;8.70;99.90;;;;;;5074058;28;20059;-62
2022/04/20 09:32:45;;;;;;;17.40;12.55;;;8.90;99.90;;;;;;5074512;28;20028;-61
2022/04/20 09:35:18;;;;;;;22.10;14.25;;;8.90;99.90;;;;;;5049141;28;20024;-62
2022/04/20 09:38:01;;;;;;;20.00;15.35;;;9.10;99.90;;;;;;5054889;28;20036;-61
2022/04/20 09:40:46;;;;;;;16.30;12.03;;;9.30;99.90;;;;;;5055064;28;20060;-61
2022/04/20 09:43:19;;;;;;;16.23;12.07;;;9.30;99.90;;;;;;5053779;28;20379;-61
2022/04/20 09:49:31;;;;;;;17.38;12.70;;;9.40;99.90;;;;;;5054369;28;20025;-61
2022/04/20 09:52:08;;;;;;;18.70;14.57;;;9.50;99.90;;;;;;4992738;28;20439;-61
2022/04/20 09:54:36;;;;;;;18.17;14.93;;;9.50;99.90;;;;;;4992649;28;20040;-61
2022/04/20 09:57:13;;;;;;;20.63;15.38;;;9.40;99.90;;;;;;4992267;28;20400;-61
2022/04/20 10:00:00;;;;;;;22.17;17.33;;;9.30;99.90;;;;;;4976108;28;20535;-61
2022/04/20 10:02:28;;;;;;;24.25;16.75;;;9.40;99.90;;;;;;4985995;28;20066;-61
2022/04/20 10:04:55;;;;;;;20.00;15.25;;;9.50;99.90;;;;;;4992318;28;20454;-60
2022/04/20 10:07:21;;;;;;;20.30;15.85;;;9.50;99.90;;;;;;4991975;28;20038;-61
2022/04/20 10:09:47;;;;;;;22.42;15.85;;;9.60;99.90;;;;;;4997399;28;20101;-61
2022/04/20 10:12:16;;;;;;;23.98;16.90;;;9.70;99.90;;;;;;5001395;28;20460;-61
2022/04/20 10:17:34;;;;;;;18.80;15.53;;;9.60;99.90;;;;;;4991742;28;20046;-61
2022/04/20 10:20:02;;;;;;;25.40;17.17;;;9.50;99.90;;;;;;4987650;28;338431;-61
2022/04/20 10:22:31;;;;;;;28.63;18.75;;;9.30;99.90;;;;;;5032671;28;20037;-61
2022/04/20 10:24:59;;;;;;;34.28;20.13;;;9.10;99.90;;;;;;5068835;28;20028;-61
2022/04/20 10:27:48;;;;;;;27.55;19.55;;;9.10;99.90;;;;;;5066631;28;20474;-60
2022/04/20 10:30:41;;;;;;;34.15;23.98;;;9.10;99.90;;;;;;5063063;28;20052;-61
2022/04/20 10:33:23;;;;;;;34.67;22.48;;;9.00;99.90;;;;;;5054094;28;20428;-60
2022/04/20 10:36:03;;;;;;;39.78;23.52;;;9.00;99.90;;;;;;5055173;28;20028;-61
2022/04/20 10:38:33;;;;;;;40.20;23.00;;;9.00;99.90;;;;;;5051363;28;20029;-61
2022/04/20 10:41:11;;;;;;;45.20;26.73;;;9.00;99.90;;;;;;5054645;28;20072;-61
2022/04/20 10:43:42;;;;;;;44.60;27.63;;;8.90;99.90;;;;;;5055604;28;20032;-61
2022/04/20 10:46:15;;;;;;;42.72;26.05;;;9.00;99.90;;;;;;5074558;28;20032;-61
2022/04/20 10:48:52;;;;;;;42.53;25.98;;;9.00;99.90;;;;;;5074817;28;20029;-61
2022/04/20 10:51:22;;;;;;;48.33;26.27;;;9.00;99.90;;;;;;5073846;28;20545;-62
2022/04/20 10:53:51;;;;;;;43.85;27.33;;;9.10;99.90;;;;;;5073573;28;20032;-61
2022/04/20 10:56:19;;;;;;;55.22;26.85;;;9.20;99.90;;;;;;5055575;28;20020;-61
2022/04/20 10:58:52;;;;;;;40.33;23.98;;;9.20;99.90;;;;;;5073825;28;20067;-61
2022/04/20 11:01:19;;;;;;;41.50;24.65;;;9.30;99.90;;;;;;5072877;28;20064;-62
2022/04/20 11:03:57;;;;;;;35.55;23.52;;;9.30;99.90;;;;;;5073781;28;20378;-61
2022/04/20 11:06:27;;;;;;;34.25;22.88;;;9.50;99.90;;;;;;5073651;28;20116;-61
2022/04/20 11:08:58;;;;;;;33.22;22.08;;;9.70;99.90;;;;;;5073904;28;20036;-61
2022/04/20 11:21:05;;;;;;;48.75;27.77;;;10.60;99.90;;;;;;5076085;28;20049;-62
2022/04/20 11:23:51;;;;;;;33.95;20.98;;;11.50;99.90;;;;;;5077116;28;20028;-62
2022/04/20 11:26:21;;;;;;;30.33;19.27;;;12.40;99.90;;;;;;5077230;28;20025;-62
2022/04/20 11:28:48;;;;;;;26.40;18.67;;;12.50;99.90;;;;;;5072945;28;20025;-63
2022/04/20 11:31:14;;;;;;;27.10;17.85;;;12.80;99.90;;;;;;5056871;28;20021;-63
2022/04/20 11:33:42;;;;;;;32.80;20.42;;;13.20;99.90;;;;;;5057398;28;20024;-63
2022/04/20 11:36:12;;;;;;;31.38;21.90;;;13.10;99.90;;;;;;5055355;28;20055;-62
2022/04/20 11:38:42;;;;;;;32.85;23.75;;;12.70;99.90;;;;;;5056875;28;20024;-62
2022/04/20 11:41:12;;;;;;;59.67;35.47;;;12.30;99.90;;;;;;5056862;28;20079;-62
2022/04/20 11:43:39;;;;;;;45.53;31.70;;;12.00;99.90;;;;;;5056911;28;20053;-62
2022/04/20 11:46:07;;;;;;;37.83;25.88;;;11.40;99.90;;;;;;5036363;28;20116;-62
2022/04/20 11:48:38;;;;;;;59.60;31.50;;;11.40;99.90;;;;;;5056812;28;20087;-62
2022/04/20 11:51:08;;;;;;;43.42;27.48;;;11.50;99.90;;;;;;5064528;28;20020;-62
2022/04/20 11:53:38;;;;;;;40.55;25.13;;;11.90;99.90;;;;;;5077003;28;20069;-62
2022/04/20 11:56:41;;;;;;;35.05;23.98;;;12.30;99.90;;;;;;5076845;28;20098;-62
2022/04/20 11:59:09;;;;;;;35.78;22.70;;;12.40;99.90;;;;;;5076333;28;20036;-62
2022/04/20 12:01:37;;;;;;;32.25;21.15;;;12.00;99.90;;;;;;5065716;28;20060;-62
2022/04/20 12:04:14;;;;;;;25.45;18.30;;;11.90;99.90;;;;;;5056252;28;20513;-62
2022/04/20 12:06:52;;;;;;;30.10;18.05;;;12.60;99.90;;;;;;5056446;28;20028;-63
2022/04/20 12:09:25;;;;;;;23.27;14.75;;;13.50;99.90;;;;;;5063721;28;20064;-62
2022/04/20 12:11:53;;;;;;;25.88;16.20;;;14.00;99.90;;;;;;5076435;28;20421;-62
2022/04/20 12:14:21;;;;;;;22.52;16.80;;;14.20;99.90;;;;;;5066093;28;20091;-63
2022/04/20 12:16:48;;;;;;;23.73;15.80;;;14.40;97.20;;;;;;5046927;28;20047;-62
2022/04/20 12:19:20;;;;;;;17.88;13.07;;;15.00;98.00;;;;;;5034096;28;20044;-62
2022/04/20 12:21:48;;;;;;;18.58;12.90;;;15.00;92.10;;;;;;5055807;28;20475;-62
2022/04/20 12:24:25;;;;;;;23.45;14.40;;;14.90;89.40;;;;;;5056346;28;20082;-62
2022/04/20 12:26:53;;;;;;;21.73;13.05;;;15.40;94.50;;;;;;5048045;28;20497;-62
2022/04/20 12:29:21;;;;;;;14.55;11.70;;;14.90;87.10;;;;;;5042505;28;20056;-62
2022/04/20 12:31:49;;;;;;;16.15;12.25;;;14.40;90.30;;;;;;5047067;28;20036;-62
2022/04/20 12:34:18;;;;;;;23.63;14.38;;;14.00;92.50;;;;;;5062131;28;20047;-62
2022/04/20 12:36:53;;;;;;;26.17;14.30;;;13.70;94.00;;;;;;5052804;28;20098;-62
2022/04/20 12:39:39;;;;;;;14.15;10.55;;;13.50;96.90;;;;;;5052114;28;20036;-62
2022/04/20 12:42:13;;;;;;;26.60;13.60;;;13.60;93.40;;;;;;5046401;28;20810;-62
2022/04/20 12:44:54;;;;;;;13.73;10.70;;;13.80;95.30;;;;;;5023888;28;20551;-62
2022/04/20 12:47:21;;;;;;;17.30;11.77;;;14.00;96.70;;;;;;5050890;28;20029;-61
2022/04/20 12:50:11;;;;;;;15.98;12.27;;;14.00;95.10;;;;;;5047650;28;20032;-61
2022/04/20 12:52:37;;;;;;;14.93;12.60;;;13.80;94.00;;;;;;5053130;28;20436;-61
2022/04/20 12:55:15;;;;;;;20.38;13.10;;;13.60;94.80;;;;;;5055295;28;20029;-62
2022/04/20 13:03:35;;;;;;;22.00;12.27;;;13.30;96.60;;;;;;5053574;28;20032;-61
2022/04/20 13:06:07;;;;;;;27.67;13.68;;;13.30;96.60;;;;;;5044573;28;20379;-61
2022/04/20 13:08:33;;;;;;;21.17;14.43;;;13.20;96.90;;;;;;5050380;28;20032;-61
2022/04/20 13:10:59;;;;;;;30.83;13.90;;;13.20;96.90;;;;;;5054111;28;20025;-61
2022/04/20 13:13:26;;;;;;;17.58;12.23;;;13.10;95.20;;;;;;5053950;28;20032;-61
2022/04/20 13:15:56;;;;;;;13.35;10.57;;;13.10;97.60;;;;;;5057378;28;20036;-61
2022/04/20 13:18:22;;;;;;;28.05;12.80;;;13.00;95.80;;;;;;5045180;28;20039;-61
2022/04/20 13:20:49;;;;;;;21.67;13.50;;;12.90;96.70;;;;;;5050595;28;20044;-61
2022/04/20 13:23:15;;;;;;;22.00;14.20;;;12.80;95.90;;;;;;5058808;28;20029;-61
2022/04/20 13:28:26;;;;;;;27.38;15.10;;;12.60;98.30;;;;;;5069673;28;20044;-61
2022/04/20 13:30:52;;;;;;;21.17;14.70;;;12.70;99.90;;;;;;5054926;28;20545;-61
2022/04/20 13:33:18;;;;;;;20.95;13.57;;;13.30;99.90;;;;;;5054630;28;20021;-61
2022/04/20 13:35:47;;;;;;;29.50;15.00;;;13.80;97.20;;;;;;5055158;28;20032;-61
2022/04/20 13:38:13;;;;;;;25.08;16.23;;;14.20;95.10;;;;;;5074326;28;20020;-62
2022/04/20 13:40:41;;;;;;;28.48;17.45;;;14.50;94.40;;;;;;5074265;28;20039;-62
2022/04/20 13:43:09;;;;;;;21.15;15.50;;;15.00;92.20;;;;;;5074541;28;20467;-61
2022/04/20 13:45:36;;;;;;;21.23;15.07;;;15.50;95.10;;;;;;5074714;28;20464;-61
2022/04/20 13:48:02;;;;;;;22.38;15.15;;;15.70;88.70;;;;;;5074702;28;20025;-61
2022/04/20 13:50:29;;;;;;;23.65;14.57;;;15.60;75.40;;;;;;5074859;28;20033;-61
2022/04/20 13:52:55;;;;;;;22.63;14.52;;;15.10;78.60;;;;;;5074548;28;20509;-62